sensor_id;sensor_type;location;lat;lon;timestamp;P1;durP1;ratioP1;P2;durP2;ratioP2
26951;SDS011;14507;52.418;13.398;2023-02-14T00:00:48;44.97;;;22.48;;
26951;SDS011;14507;52.418;13.398;2023-02-14T00:03:14;53.30;;;22.55;;
26951;SDS011;14507;52.418;13.398;2023-02-14T00:05:40;51.05;;;23.58;;
26951;SDS011;14507;52.418;13.398;2023-02-14T00:08:11;48.78;;;23.65;;
26951;SDS011;14507;52.418;13.398;2023-02-14T00:10:37;49.88;;;24.35;;
26951;SDS011;14507;52.418;13.398;2023-02-14T00:13:03;50.67;;;23.70;;
26951;SDS011;14507;52.418;13.398;2023-02-14T00:15:29;49.65;;;24.13;;
26951;SDS011;14507;52.418;13.398;2023-02-14T00:17:55;46.47;;;22.67;;
26951;SDS011;14507;52.418;13.398;2023-02-14T00:20:23;54.08;;;24.13;;
26951;SDS011;14507;52.418;13.398;2023-02-14T00:22:52;47.40;;;22.88;;
26951;SDS011;14507;52.418;13.398;2023-02-14T00:25:18;47.70;;;23.73;;
26951;SDS011;14507;52.418;13.398;2023-02-14T00:27:44;45.88;;;22.77;;
26951;SDS011;14507;52.418;13.398;2023-02-14T00:30:11;47.75;;;22.50;;
26951;SDS011;14507;52.418;13.398;2023-02-14T00:32:37;49.17;;;23.50;;
26951;SDS011;14507;52.418;13.398;2023-02-14T00:35:05;51.10;;;23.58;;
26951;SDS011;14507;52.418;13.398;2023-02-14T00:37:32;47.53;;;23.88;;
26951;SDS011;14507;52.418;13.398;2023-02-14T00:39:58;45.90;;;22.52;;
26951;SDS011;14507;52.418;13.398;2023-02-14T00:42:23;51.28;;;23.15;;
26951;SDS011;14507;52.418;13.398;2023-02-14T00:44:49;52.65;;;23.10;;
26951;SDS011;14507;52.418;13.398;2023-02-14T00:47:15;45.97;;;22.13;;
26951;SDS011;14507;52.418;13.398;2023-02-14T00:49:43;45.67;;;21.92;;
26951;SDS011;14507;52.418;13.398;2023-02-14T00:52:09;49.10;;;23.33;;
26951;SDS011;14507;52.418;13.398;2023-02-14T00:54:35;50.20;;;21.80;;
26951;SDS011;14507;52.418;13.398;2023-02-14T00:57:03;49.05;;;22.10;;
26951;SDS011;14507;52.418;13.398;2023-02-14T00:59:29;56.33;;;24.00;;
26951;SDS011;14507;52.418;13.398;2023-02-14T01:01:54;50.67;;;23.95;;
26951;SDS011;14507;52.418;13.398;2023-02-14T01:04:20;51.55;;;22.55;;
26951;SDS011;14507;52.418;13.398;2023-02-14T01:06:46;49.05;;;22.10;;
26951;SDS011;14507;52.418;13.398;2023-02-14T01:09:11;51.13;;;23.20;;
26951;SDS011;14507;52.418;13.398;2023-02-14T01:11:38;48.30;;;21.73;;
26951;SDS011;14507;52.418;13.398;2023-02-14T01:14:09;49.67;;;21.30;;
26951;SDS011;14507;52.418;13.398;2023-02-14T01:16:36;53.28;;;22.05;;
26951;SDS011;14507;52.418;13.398;2023-02-14T01:19:05;49.75;;;23.50;;
26951;SDS011;14507;52.418;13.398;2023-02-14T01:21:33;52.53;;;22.25;;
26951;SDS011;14507;52.418;13.398;2023-02-14T01:24:00;54.53;;;24.17;;
26951;SDS011;14507;52.418;13.398;2023-02-14T01:26:30;55.97;;;23.52;;
26951;SDS011;14507;52.418;13.398;2023-02-14T01:28:56;52.80;;;23.05;;
26951;SDS011;14507;52.418;13.398;2023-02-14T01:31:24;48.88;;;22.27;;
26951;SDS011;14507;52.418;13.398;2023-02-14T01:33:51;51.22;;;23.90;;
26951;SDS011;14507;52.418;13.398;2023-02-14T01:36:27;55.83;;;24.00;;
26951;SDS011;14507;52.418;13.398;2023-02-14T01:39:00;51.85;;;23.23;;
26951;SDS011;14507;52.418;13.398;2023-02-14T01:41:34;55.83;;;24.65;;
26951;SDS011;14507;52.418;13.398;2023-02-14T01:46:31;51.88;;;23.17;;
26951;SDS011;14507;52.418;13.398;2023-02-14T01:51:53;49.85;;;22.73;;
26951;SDS011;14507;52.418;13.398;2023-02-14T01:54:24;50.72;;;22.63;;
26951;SDS011;14507;52.418;13.398;2023-02-14T01:56:53;45.72;;;22.77;;
26951;SDS011;14507;52.418;13.398;2023-02-14T01:59:23;53.60;;;23.35;;
26951;SDS011;14507;52.418;13.398;2023-02-14T02:04:39;50.40;;;23.40;;
26951;SDS011;14507;52.418;13.398;2023-02-14T02:07:06;53.10;;;23.55;;
26951;SDS011;14507;52.418;13.398;2023-02-14T02:09:37;46.78;;;21.98;;
26951;SDS011;14507;52.418;13.398;2023-02-14T02:12:20;50.33;;;23.02;;
26951;SDS011;14507;52.418;13.398;2023-02-14T02:14:46;53.10;;;23.08;;
26951;SDS011;14507;52.418;13.398;2023-02-14T02:50:45;49.10;;;23.60;;
26951;SDS011;14507;52.418;13.398;2023-02-14T02:56:51;52.63;;;24.95;;
26951;SDS011;14507;52.418;13.398;2023-02-14T02:59:28;52.53;;;24.30;;
26951;SDS011;14507;52.418;13.398;2023-02-14T03:02:08;51.05;;;23.52;;
26951;SDS011;14507;52.418;13.398;2023-02-14T03:04:44;47.92;;;22.42;;
26951;SDS011;14507;52.418;13.398;2023-02-14T03:10:21;50.20;;;23.65;;
26951;SDS011;14507;52.418;13.398;2023-02-14T03:20:48;53.70;;;24.67;;
26951;SDS011;14507;52.418;13.398;2023-02-14T03:26:16;62.75;;;25.52;;
26951;SDS011;14507;52.418;13.398;2023-02-14T03:36:26;49.53;;;22.83;;
26951;SDS011;14507;52.418;13.398;2023-02-14T03:39:47;54.70;;;23.53;;
26951;SDS011;14507;52.418;13.398;2023-02-14T03:41:59;57.10;;;25.02;;
26951;SDS011;14507;52.418;13.398;2023-02-14T03:44:35;63.80;;;25.92;;
26951;SDS011;14507;52.418;13.398;2023-02-14T03:47:05;49.13;;;24.42;;
26951;SDS011;14507;52.418;13.398;2023-02-14T03:49:36;54.50;;;24.80;;
26951;SDS011;14507;52.418;13.398;2023-02-14T03:52:07;58.60;;;24.27;;
26951;SDS011;14507;52.418;13.398;2023-02-14T03:54:34;61.97;;;25.92;;
26951;SDS011;14507;52.418;13.398;2023-02-14T03:59:29;56.80;;;24.08;;
26951;SDS011;14507;52.418;13.398;2023-02-14T04:04:32;53.47;;;23.50;;
26951;SDS011;14507;52.418;13.398;2023-02-14T04:07:12;58.40;;;25.02;;
26951;SDS011;14507;52.418;13.398;2023-02-14T04:09:40;54.17;;;24.70;;
26951;SDS011;14507;52.418;13.398;2023-02-14T04:12:05;51.40;;;23.85;;
26951;SDS011;14507;52.418;13.398;2023-02-14T04:14:31;54.05;;;25.10;;
26951;SDS011;14507;52.418;13.398;2023-02-14T04:16:57;49.13;;;23.05;;
26951;SDS011;14507;52.418;13.398;2023-02-14T04:19:41;61.53;;;26.23;;
26951;SDS011;14507;52.418;13.398;2023-02-14T04:22:07;57.92;;;25.00;;
26951;SDS011;14507;52.418;13.398;2023-02-14T04:24:33;59.42;;;25.35;;
26951;SDS011;14507;52.418;13.398;2023-02-14T04:26:58;60.38;;;25.42;;
26951;SDS011;14507;52.418;13.398;2023-02-14T04:32:16;50.33;;;22.65;;
26951;SDS011;14507;52.418;13.398;2023-02-14T04:34:44;53.42;;;25.10;;
26951;SDS011;14507;52.418;13.398;2023-02-14T04:37:10;58.22;;;25.42;;
26951;SDS011;14507;52.418;13.398;2023-02-14T04:39:36;52.22;;;23.40;;
26951;SDS011;14507;52.418;13.398;2023-02-14T04:42:02;56.80;;;24.58;;
26951;SDS011;14507;52.418;13.398;2023-02-14T04:44:29;58.33;;;24.30;;
26951;SDS011;14507;52.418;13.398;2023-02-14T04:46:55;58.33;;;25.30;;
26951;SDS011;14507;52.418;13.398;2023-02-14T04:49:20;54.60;;;24.25;;
26951;SDS011;14507;52.418;13.398;2023-02-14T04:51:46;53.50;;;23.95;;
26951;SDS011;14507;52.418;13.398;2023-02-14T04:54:12;54.15;;;22.50;;
26951;SDS011;14507;52.418;13.398;2023-02-14T04:56:38;58.33;;;24.45;;
26951;SDS011;14507;52.418;13.398;2023-02-14T04:59:04;56.28;;;24.30;;
26951;SDS011;14507;52.418;13.398;2023-02-14T05:01:30;54.75;;;23.70;;
26951;SDS011;14507;52.418;13.398;2023-02-14T05:03:56;60.63;;;23.90;;
26951;SDS011;14507;52.418;13.398;2023-02-14T05:06:21;57.38;;;26.23;;
26951;SDS011;14507;52.418;13.398;2023-02-14T05:08:47;49.85;;;22.52;;
26951;SDS011;14507;52.418;13.398;2023-02-14T05:11:13;56.00;;;25.00;;
26951;SDS011;14507;52.418;13.398;2023-02-14T05:13:38;58.13;;;25.63;;
26951;SDS011;14507;52.418;13.398;2023-02-14T05:16:04;53.88;;;23.90;;
26951;SDS011;14507;52.418;13.398;2023-02-14T05:18:30;52.53;;;23.20;;
26951;SDS011;14507;52.418;13.398;2023-02-14T05:20:55;60.70;;;24.67;;
26951;SDS011;14507;52.418;13.398;2023-02-14T05:23:21;57.85;;;24.85;;
26951;SDS011;14507;52.418;13.398;2023-02-14T05:25:47;56.88;;;25.15;;
26951;SDS011;14507;52.418;13.398;2023-02-14T05:28:14;64.50;;;25.50;;
26951;SDS011;14507;52.418;13.398;2023-02-14T05:30:40;58.45;;;25.35;;
26951;SDS011;14507;52.418;13.398;2023-02-14T05:33:05;62.00;;;24.35;;
26951;SDS011;14507;52.418;13.398;2023-02-14T05:35:31;56.85;;;24.00;;
26951;SDS011;14507;52.418;13.398;2023-02-14T05:37:57;57.92;;;24.88;;
26951;SDS011;14507;52.418;13.398;2023-02-14T05:40:23;65.70;;;26.83;;
26951;SDS011;14507;52.418;13.398;2023-02-14T05:42:50;60.60;;;26.23;;
26951;SDS011;14507;52.418;13.398;2023-02-14T05:45:16;55.17;;;23.67;;
26951;SDS011;14507;52.418;13.398;2023-02-14T05:47:42;60.17;;;25.85;;
26951;SDS011;14507;52.418;13.398;2023-02-14T05:50:08;61.63;;;26.00;;
26951;SDS011;14507;52.418;13.398;2023-02-14T05:52:34;54.97;;;23.65;;
26951;SDS011;14507;52.418;13.398;2023-02-14T05:54:59;63.75;;;26.27;;
26951;SDS011;14507;52.418;13.398;2023-02-14T05:57:25;57.42;;;25.60;;
26951;SDS011;14507;52.418;13.398;2023-02-14T05:59:51;62.25;;;24.00;;
26951;SDS011;14507;52.418;13.398;2023-02-14T06:02:16;54.55;;;24.42;;
26951;SDS011;14507;52.418;13.398;2023-02-14T06:04:42;59.50;;;24.13;;
26951;SDS011;14507;52.418;13.398;2023-02-14T06:07:07;59.58;;;24.30;;
26951;SDS011;14507;52.418;13.398;2023-02-14T06:09:33;63.17;;;26.35;;
26951;SDS011;14507;52.418;13.398;2023-02-14T06:11:59;66.30;;;26.88;;
26951;SDS011;14507;52.418;13.398;2023-02-14T06:14:24;61.15;;;24.95;;
26951;SDS011;14507;52.418;13.398;2023-02-14T06:16:50;60.88;;;25.17;;
26951;SDS011;14507;52.418;13.398;2023-02-14T06:19:16;61.97;;;24.77;;
26951;SDS011;14507;52.418;13.398;2023-02-14T06:21:41;56.60;;;24.98;;
26951;SDS011;14507;52.418;13.398;2023-02-14T06:24:07;60.75;;;25.20;;
26951;SDS011;14507;52.418;13.398;2023-02-14T06:26:33;50.55;;;23.15;;
26951;SDS011;14507;52.418;13.398;2023-02-14T06:29:00;59.03;;;26.77;;
26951;SDS011;14507;52.418;13.398;2023-02-14T06:31:26;60.50;;;25.17;;
26951;SDS011;14507;52.418;13.398;2023-02-14T06:33:52;59.30;;;23.92;;
26951;SDS011;14507;52.418;13.398;2023-02-14T06:36:18;60.20;;;26.17;;
26951;SDS011;14507;52.418;13.398;2023-02-14T06:38:44;56.15;;;24.95;;
26951;SDS011;14507;52.418;13.398;2023-02-14T06:41:12;67.67;;;26.93;;
26951;SDS011;14507;52.418;13.398;2023-02-14T06:43:39;68.15;;;26.58;;
26951;SDS011;14507;52.418;13.398;2023-02-14T06:46:04;63.45;;;25.85;;
26951;SDS011;14507;52.418;13.398;2023-02-14T06:48:30;65.40;;;26.90;;
26951;SDS011;14507;52.418;13.398;2023-02-14T06:50:56;64.75;;;26.63;;
26951;SDS011;14507;52.418;13.398;2023-02-14T06:53:21;62.88;;;26.10;;
26951;SDS011;14507;52.418;13.398;2023-02-14T06:55:47;61.50;;;26.00;;
26951;SDS011;14507;52.418;13.398;2023-02-14T06:58:13;63.38;;;26.10;;
26951;SDS011;14507;52.418;13.398;2023-02-14T07:00:39;57.65;;;25.92;;
26951;SDS011;14507;52.418;13.398;2023-02-14T07:03:05;68.97;;;26.25;;
26951;SDS011;14507;52.418;13.398;2023-02-14T07:05:31;59.90;;;25.15;;
26951;SDS011;14507;52.418;13.398;2023-02-14T07:07:58;66.57;;;25.10;;
26951;SDS011;14507;52.418;13.398;2023-02-14T07:10:23;64.97;;;25.02;;
26951;SDS011;14507;52.418;13.398;2023-02-14T07:12:49;69.03;;;26.65;;
26951;SDS011;14507;52.418;13.398;2023-02-14T07:15:15;70.20;;;27.70;;
26951;SDS011;14507;52.418;13.398;2023-02-14T07:17:40;60.33;;;25.63;;
26951;SDS011;14507;52.418;13.398;2023-02-14T07:20:07;63.85;;;26.35;;
26951;SDS011;14507;52.418;13.398;2023-02-14T07:22:34;65.85;;;26.40;;
26951;SDS011;14507;52.418;13.398;2023-02-14T07:25:00;65.60;;;26.63;;
26951;SDS011;14507;52.418;13.398;2023-02-14T07:27:26;62.45;;;26.30;;
26951;SDS011;14507;52.418;13.398;2023-02-14T07:29:52;60.50;;;24.20;;
26951;SDS011;14507;52.418;13.398;2023-02-14T07:32:17;66.18;;;26.38;;
26951;SDS011;14507;52.418;13.398;2023-02-14T07:34:43;63.45;;;26.50;;
26951;SDS011;14507;52.418;13.398;2023-02-14T07:37:08;64.57;;;27.27;;
26951;SDS011;14507;52.418;13.398;2023-02-14T07:39:34;66.03;;;26.35;;
26951;SDS011;14507;52.418;13.398;2023-02-14T07:42:00;65.15;;;27.05;;
26951;SDS011;14507;52.418;13.398;2023-02-14T07:44:25;66.93;;;28.23;;
26951;SDS011;14507;52.418;13.398;2023-02-14T07:46:51;60.28;;;27.02;;
26951;SDS011;14507;52.418;13.398;2023-02-14T07:49:17;76.18;;;28.17;;
26951;SDS011;14507;52.418;13.398;2023-02-14T07:51:42;67.43;;;27.85;;
26951;SDS011;14507;52.418;13.398;2023-02-14T07:54:08;70.97;;;26.77;;
26951;SDS011;14507;52.418;13.398;2023-02-14T07:56:34;73.10;;;28.25;;
26951;SDS011;14507;52.418;13.398;2023-02-14T07:58:59;62.92;;;26.08;;
26951;SDS011;14507;52.418;13.398;2023-02-14T08:01:25;68.15;;;26.70;;
26951;SDS011;14507;52.418;13.398;2023-02-14T08:03:50;63.35;;;27.27;;
26951;SDS011;14507;52.418;13.398;2023-02-14T08:06:20;61.88;;;26.83;;
26951;SDS011;14507;52.418;13.398;2023-02-14T08:08:46;72.75;;;29.00;;
26951;SDS011;14507;52.418;13.398;2023-02-14T08:11:12;65.20;;;26.85;;
26951;SDS011;14507;52.418;13.398;2023-02-14T08:13:58;60.55;;;24.98;;
26951;SDS011;14507;52.418;13.398;2023-02-14T08:16:23;69.45;;;27.48;;
26951;SDS011;14507;52.418;13.398;2023-02-14T08:18:49;67.50;;;27.90;;
26951;SDS011;14507;52.418;13.398;2023-02-14T08:21:15;66.90;;;27.67;;
26951;SDS011;14507;52.418;13.398;2023-02-14T08:23:41;58.67;;;26.33;;
26951;SDS011;14507;52.418;13.398;2023-02-14T08:26:07;65.85;;;27.48;;
26951;SDS011;14507;52.418;13.398;2023-02-14T08:28:33;65.57;;;26.42;;
26951;SDS011;14507;52.418;13.398;2023-02-14T08:30:59;60.33;;;26.80;;
26951;SDS011;14507;52.418;13.398;2023-02-14T08:33:26;60.90;;;25.55;;
26951;SDS011;14507;52.418;13.398;2023-02-14T08:35:52;64.45;;;27.65;;
26951;SDS011;14507;52.418;13.398;2023-02-14T08:38:18;59.83;;;25.98;;
26951;SDS011;14507;52.418;13.398;2023-02-14T08:40:44;57.65;;;26.05;;
26951;SDS011;14507;52.418;13.398;2023-02-14T08:43:10;61.97;;;26.40;;
26951;SDS011;14507;52.418;13.398;2023-02-14T08:45:36;61.20;;;26.35;;
26951;SDS011;14507;52.418;13.398;2023-02-14T08:48:06;60.60;;;25.67;;
26951;SDS011;14507;52.418;13.398;2023-02-14T08:50:33;64.57;;;26.70;;
26951;SDS011;14507;52.418;13.398;2023-02-14T08:53:10;69.75;;;26.98;;
26951;SDS011;14507;52.418;13.398;2023-02-14T08:55:37;73.03;;;27.48;;
26951;SDS011;14507;52.418;13.398;2023-02-14T08:58:03;64.70;;;26.10;;
26951;SDS011;14507;52.418;13.398;2023-02-14T09:00:32;59.83;;;26.05;;
26951;SDS011;14507;52.418;13.398;2023-02-14T09:02:58;50.30;;;23.95;;
26951;SDS011;14507;52.418;13.398;2023-02-14T09:05:24;56.13;;;24.55;;
26951;SDS011;14507;52.418;13.398;2023-02-14T09:07:51;52.90;;;23.00;;
26951;SDS011;14507;52.418;13.398;2023-02-14T09:10:17;54.45;;;25.00;;
26951;SDS011;14507;52.418;13.398;2023-02-14T09:12:43;57.22;;;24.77;;
26951;SDS011;14507;52.418;13.398;2023-02-14T09:15:09;49.10;;;23.33;;
26951;SDS011;14507;52.418;13.398;2023-02-14T09:17:36;58.53;;;24.02;;
26951;SDS011;14507;52.418;13.398;2023-02-14T09:20:03;50.58;;;22.83;;
26951;SDS011;14507;52.418;13.398;2023-02-14T09:22:30;55.42;;;22.80;;
26951;SDS011;14507;52.418;13.398;2023-02-14T09:24:57;54.35;;;24.42;;
26951;SDS011;14507;52.418;13.398;2023-02-14T09:27:22;53.92;;;25.23;;
26951;SDS011;14507;52.418;13.398;2023-02-14T09:29:48;55.38;;;25.02;;
26951;SDS011;14507;52.418;13.398;2023-02-14T09:32:14;52.28;;;23.63;;
26951;SDS011;14507;52.418;13.398;2023-02-14T09:34:40;57.30;;;24.92;;
26951;SDS011;14507;52.418;13.398;2023-02-14T09:37:05;53.53;;;24.33;;
26951;SDS011;14507;52.418;13.398;2023-02-14T09:39:50;55.17;;;25.30;;
26951;SDS011;14507;52.418;13.398;2023-02-14T09:44:48;51.60;;;22.83;;
26951;SDS011;14507;52.418;13.398;2023-02-14T09:47:55;50.65;;;21.80;;
26951;SDS011;14507;52.418;13.398;2023-02-14T09:50:32;50.83;;;22.45;;
26951;SDS011;14507;52.418;13.398;2023-02-14T09:53:11;49.45;;;23.85;;
26951;SDS011;14507;52.418;13.398;2023-02-14T09:58:43;51.95;;;23.80;;
26951;SDS011;14507;52.418;13.398;2023-02-14T10:01:28;49.35;;;22.75;;
26951;SDS011;14507;52.418;13.398;2023-02-14T10:03:59;50.25;;;23.05;;
26951;SDS011;14507;52.418;13.398;2023-02-14T10:07:03;48.85;;;23.42;;
26951;SDS011;14507;52.418;13.398;2023-02-14T10:12:43;47.85;;;22.80;;
26951;SDS011;14507;52.418;13.398;2023-02-14T10:15:26;51.30;;;23.00;;
26951;SDS011;14507;52.418;13.398;2023-02-14T10:18:01;51.15;;;23.00;;
26951;SDS011;14507;52.418;13.398;2023-02-14T10:20:42;50.75;;;23.08;;
26951;SDS011;14507;52.418;13.398;2023-02-14T10:26:09;47.42;;;22.33;;
26951;SDS011;14507;52.418;13.398;2023-02-14T10:28:51;48.17;;;22.48;;
26951;SDS011;14507;52.418;13.398;2023-02-14T10:34:00;48.63;;;22.13;;
26951;SDS011;14507;52.418;13.398;2023-02-14T10:36:55;50.17;;;22.15;;
26951;SDS011;14507;52.418;13.398;2023-02-14T10:53:07;48.92;;;21.83;;
26951;SDS011;14507;52.418;13.398;2023-02-14T10:58:28;47.35;;;22.33;;
26951;SDS011;14507;52.418;13.398;2023-02-14T11:01:06;44.13;;;22.27;;
26951;SDS011;14507;52.418;13.398;2023-02-14T11:03:35;42.60;;;20.67;;
26951;SDS011;14507;52.418;13.398;2023-02-14T11:06:04;46.05;;;22.67;;
26951;SDS011;14507;52.418;13.398;2023-02-14T11:08:31;45.08;;;22.23;;
26951;SDS011;14507;52.418;13.398;2023-02-14T11:11:06;46.00;;;22.40;;
26951;SDS011;14507;52.418;13.398;2023-02-14T11:13:43;46.08;;;21.35;;
26951;SDS011;14507;52.418;13.398;2023-02-14T11:16:11;47.20;;;21.55;;
26951;SDS011;14507;52.418;13.398;2023-02-14T11:21:51;48.50;;;21.50;;
26951;SDS011;14507;52.418;13.398;2023-02-14T11:24:24;45.35;;;21.33;;
26951;SDS011;14507;52.418;13.398;2023-02-14T11:26:58;45.13;;;21.75;;
26951;SDS011;14507;52.418;13.398;2023-02-14T11:29:46;43.92;;;21.55;;
26951;SDS011;14507;52.418;13.398;2023-02-14T11:34:54;45.30;;;21.77;;
26951;SDS011;14507;52.418;13.398;2023-02-14T11:37:25;51.58;;;22.20;;
26951;SDS011;14507;52.418;13.398;2023-02-14T11:39:54;47.80;;;21.17;;
26951;SDS011;14507;52.418;13.398;2023-02-14T11:45:04;45.45;;;21.08;;
26951;SDS011;14507;52.418;13.398;2023-02-14T11:47:32;43.50;;;20.55;;
26951;SDS011;14507;52.418;13.398;2023-02-14T11:50:06;44.60;;;20.60;;
26951;SDS011;14507;52.418;13.398;2023-02-14T11:52:49;41.83;;;21.50;;
26951;SDS011;14507;52.418;13.398;2023-02-14T11:55:21;44.05;;;20.50;;
26951;SDS011;14507;52.418;13.398;2023-02-14T11:57:57;48.42;;;21.15;;
26951;SDS011;14507;52.418;13.398;2023-02-14T12:00:25;44.20;;;22.23;;
26951;SDS011;14507;52.418;13.398;2023-02-14T12:02:55;42.58;;;20.80;;
26951;SDS011;14507;52.418;13.398;2023-02-14T12:07:56;45.90;;;21.92;;
26951;SDS011;14507;52.418;13.398;2023-02-14T12:10:28;45.40;;;21.52;;
26951;SDS011;14507;52.418;13.398;2023-02-14T12:18:02;47.72;;;22.38;;
26951;SDS011;14507;52.418;13.398;2023-02-14T12:21:02;46.38;;;21.25;;
26951;SDS011;14507;52.418;13.398;2023-02-14T12:29:03;53.75;;;23.80;;
26951;SDS011;14507;52.418;13.398;2023-02-14T12:31:36;43.63;;;21.58;;
26951;SDS011;14507;52.418;13.398;2023-02-14T12:34:02;55.70;;;23.38;;
26951;SDS011;14507;52.418;13.398;2023-02-14T12:39:27;41.95;;;20.50;;
26951;SDS011;14507;52.418;13.398;2023-02-14T13:06:50;50.42;;;23.92;;
26951;SDS011;14507;52.418;13.398;2023-02-14T13:12:11;47.50;;;21.65;;
26951;SDS011;14507;52.418;13.398;2023-02-14T13:22:59;41.47;;;20.38;;
26951;SDS011;14507;52.418;13.398;2023-02-14T13:25:38;46.03;;;21.27;;
26951;SDS011;14507;52.418;13.398;2023-02-14T13:28:10;48.45;;;23.13;;
26951;SDS011;14507;52.418;13.398;2023-02-14T13:30:38;49.05;;;21.55;;
26951;SDS011;14507;52.418;13.398;2023-02-14T13:33:08;42.65;;;21.20;;
26951;SDS011;14507;52.418;13.398;2023-02-14T13:35:49;44.00;;;20.75;;
26951;SDS011;14507;52.418;13.398;2023-02-14T13:38:16;46.15;;;21.52;;
26951;SDS011;14507;52.418;13.398;2023-02-14T13:40:43;43.95;;;20.75;;
26951;SDS011;14507;52.418;13.398;2023-02-14T13:43:11;42.10;;;20.33;;
26951;SDS011;14507;52.418;13.398;2023-02-14T13:48:05;42.20;;;20.10;;
26951;SDS011;14507;52.418;13.398;2023-02-14T13:50:55;43.60;;;21.10;;
26951;SDS011;14507;52.418;13.398;2023-02-14T13:55:55;42.05;;;19.80;;
26951;SDS011;14507;52.418;13.398;2023-02-14T13:58:21;43.33;;;19.65;;
26951;SDS011;14507;52.418;13.398;2023-02-14T14:00:48;40.70;;;19.88;;
26951;SDS011;14507;52.418;13.398;2023-02-14T14:03:51;42.50;;;19.95;;
26951;SDS011;14507;52.418;13.398;2023-02-14T14:06:04;40.05;;;20.10;;
26951;SDS011;14507;52.418;13.398;2023-02-14T14:11:00;46.88;;;20.67;;
26951;SDS011;14507;52.418;13.398;2023-02-14T14:16:18;41.78;;;19.75;;
26951;SDS011;14507;52.418;13.398;2023-02-14T14:29:50;41.55;;;20.73;;
26951;SDS011;14507;52.418;13.398;2023-02-14T14:32:31;42.05;;;20.63;;
26951;SDS011;14507;52.418;13.398;2023-02-14T14:37:33;36.53;;;19.58;;
26951;SDS011;14507;52.418;13.398;2023-02-14T14:40:04;47.78;;;19.98;;
26951;SDS011;14507;52.418;13.398;2023-02-14T14:42:35;41.42;;;20.80;;
26951;SDS011;14507;52.418;13.398;2023-02-14T14:45:04;46.00;;;20.15;;
26951;SDS011;14507;52.418;13.398;2023-02-14T14:47:39;35.65;;;18.55;;
26951;SDS011;14507;52.418;13.398;2023-02-14T14:50:08;39.92;;;18.30;;
26951;SDS011;14507;52.418;13.398;2023-02-14T14:52:47;44.83;;;18.98;;
26951;SDS011;14507;52.418;13.398;2023-02-14T14:55:25;39.08;;;19.05;;
26951;SDS011;14507;52.418;13.398;2023-02-14T14:57:53;34.30;;;17.73;;
26951;SDS011;14507;52.418;13.398;2023-02-14T15:00:36;40.55;;;18.60;;
26951;SDS011;14507;52.418;13.398;2023-02-14T15:03:06;44.38;;;19.40;;
26951;SDS011;14507;52.418;13.398;2023-02-14T15:08:32;39.78;;;19.95;;
26951;SDS011;14507;52.418;13.398;2023-02-14T15:11:17;41.90;;;17.40;;
26951;SDS011;14507;52.418;13.398;2023-02-14T15:14:07;37.17;;;18.55;;
26951;SDS011;14507;52.418;13.398;2023-02-14T15:19:18;42.65;;;20.00;;
26951;SDS011;14507;52.418;13.398;2023-02-14T15:21:47;37.88;;;18.83;;
26951;SDS011;14507;52.418;13.398;2023-02-14T15:24:15;43.83;;;20.20;;
26951;SDS011;14507;52.418;13.398;2023-02-14T15:31:52;40.13;;;18.83;;
26951;SDS011;14507;52.418;13.398;2023-02-14T15:34:21;46.17;;;20.77;;
26951;SDS011;14507;52.418;13.398;2023-02-14T15:36:50;42.95;;;19.25;;
26951;SDS011;14507;52.418;13.398;2023-02-14T15:39:26;42.58;;;19.35;;
26951;SDS011;14507;52.418;13.398;2023-02-14T15:42:24;44.97;;;20.65;;
26951;SDS011;14507;52.418;13.398;2023-02-14T15:47:52;40.40;;;18.38;;
26951;SDS011;14507;52.418;13.398;2023-02-14T15:50:21;42.85;;;18.85;;
26951;SDS011;14507;52.418;13.398;2023-02-14T15:52:54;40.67;;;18.83;;
26951;SDS011;14507;52.418;13.398;2023-02-14T15:55:30;39.72;;;19.40;;
26951;SDS011;14507;52.418;13.398;2023-02-14T15:57:58;42.72;;;20.45;;
26951;SDS011;14507;52.418;13.398;2023-02-14T16:00:45;40.72;;;18.98;;
26951;SDS011;14507;52.418;13.398;2023-02-14T16:03:13;47.72;;;20.48;;
26951;SDS011;14507;52.418;13.398;2023-02-14T16:05:45;46.30;;;19.38;;
26951;SDS011;14507;52.418;13.398;2023-02-14T16:11:25;46.80;;;20.33;;
26951;SDS011;14507;52.418;13.398;2023-02-14T16:13:51;43.17;;;19.30;;
26951;SDS011;14507;52.418;13.398;2023-02-14T16:16:16;45.80;;;20.40;;
26951;SDS011;14507;52.418;13.398;2023-02-14T16:18:46;39.97;;;19.38;;
26951;SDS011;14507;52.418;13.398;2023-02-14T16:21:21;40.58;;;17.80;;
26951;SDS011;14507;52.418;13.398;2023-02-14T16:26:36;48.97;;;19.25;;
26951;SDS011;14507;52.418;13.398;2023-02-14T16:29:04;39.42;;;19.02;;
26951;SDS011;14507;52.418;13.398;2023-02-14T16:31:31;40.70;;;18.98;;
26951;SDS011;14507;52.418;13.398;2023-02-14T16:33:57;40.88;;;19.00;;
26951;SDS011;14507;52.418;13.398;2023-02-14T16:36:25;42.78;;;19.55;;
26951;SDS011;14507;52.418;13.398;2023-02-14T16:38:54;44.00;;;19.73;;
26951;SDS011;14507;52.418;13.398;2023-02-14T16:41:22;43.40;;;20.38;;
26951;SDS011;14507;52.418;13.398;2023-02-14T16:43:50;41.53;;;19.65;;
26951;SDS011;14507;52.418;13.398;2023-02-14T16:46:17;47.42;;;19.75;;
26951;SDS011;14507;52.418;13.398;2023-02-14T16:48:49;44.97;;;20.50;;
26951;SDS011;14507;52.418;13.398;2023-02-14T16:51:17;42.40;;;20.63;;
26951;SDS011;14507;52.418;13.398;2023-02-14T16:53:44;46.78;;;20.08;;
26951;SDS011;14507;52.418;13.398;2023-02-14T16:56:12;43.88;;;20.83;;
26951;SDS011;14507;52.418;13.398;2023-02-14T16:59:06;41.25;;;20.25;;
26951;SDS011;14507;52.418;13.398;2023-02-14T17:01:32;45.95;;;20.48;;
26951;SDS011;14507;52.418;13.398;2023-02-14T17:03:57;41.88;;;19.98;;
26951;SDS011;14507;52.418;13.398;2023-02-14T17:06:24;43.78;;;19.80;;
26951;SDS011;14507;52.418;13.398;2023-02-14T17:08:55;41.60;;;19.92;;
26951;SDS011;14507;52.418;13.398;2023-02-14T17:11:23;51.22;;;21.48;;
26951;SDS011;14507;52.418;13.398;2023-02-14T17:13:52;52.15;;;20.30;;
26951;SDS011;14507;52.418;13.398;2023-02-14T17:16:18;44.85;;;19.83;;
26951;SDS011;14507;52.418;13.398;2023-02-14T17:18:45;38.30;;;18.60;;
26951;SDS011;14507;52.418;13.398;2023-02-14T17:21:14;48.95;;;20.52;;
26951;SDS011;14507;52.418;13.398;2023-02-14T17:23:40;40.78;;;20.23;;
26951;SDS011;14507;52.418;13.398;2023-02-14T17:26:06;42.60;;;20.85;;
26951;SDS011;14507;52.418;13.398;2023-02-14T17:28:32;46.38;;;20.45;;
26951;SDS011;14507;52.418;13.398;2023-02-14T17:30:58;49.95;;;20.63;;
26951;SDS011;14507;52.418;13.398;2023-02-14T17:33:24;44.17;;;20.77;;
26951;SDS011;14507;52.418;13.398;2023-02-14T17:35:50;42.95;;;20.13;;
26951;SDS011;14507;52.418;13.398;2023-02-14T17:38:16;43.08;;;20.95;;
26951;SDS011;14507;52.418;13.398;2023-02-14T17:40:42;46.33;;;20.77;;
26951;SDS011;14507;52.418;13.398;2023-02-14T17:43:08;45.15;;;20.88;;
26951;SDS011;14507;52.418;13.398;2023-02-14T17:45:34;44.80;;;19.77;;
26951;SDS011;14507;52.418;13.398;2023-02-14T17:47:59;39.58;;;19.88;;
26951;SDS011;14507;52.418;13.398;2023-02-14T17:50:26;43.72;;;20.13;;